East Jewett, New York
Current Conditions -  °F | °C
As of 10:01 PM on Monday 26 Jan 2015 (Local Time) from KALB Reporting Station
Light Snow Light Snow  
Wind Chill:   Ceiling: 2500
Heat Index: 16°   Visibility: 2mi
Dew Point:   Wind: 10mph
Humidity: 74%   Direction: 10°N
Pressure: 29.98"   Gusts: NA
Location:  42.23°N, 74.15°W
Report Text: KALB 270301Z 01009KT 2SM -SN BKN025 BKN030 OVC040 M09/M13 A2998 RMK AO2 P0000 T10891128 $
Loading
Personal Weather Stations






























Interactive Weather Map New forecast layout! Learn more

10-Day Weather Forecast

Advertisements
Track Severe Weather on mobile